sensor_id;sensor_type;location;lat;lon;timestamp;P1;durP1;ratioP1;P2;durP2;ratioP2
46941;SDS011;32676;52.630;4.896;2022-12-31T00:00:03;16.13;;;3.50;;
46941;SDS011;32676;52.630;4.896;2022-12-31T00:02:30;25.23;;;4.60;;
46941;SDS011;32676;52.630;4.896;2022-12-31T00:04:58;28.60;;;4.10;;
46941;SDS011;32676;52.630;4.896;2022-12-31T00:07:25;28.70;;;5.63;;
46941;SDS011;32676;52.630;4.896;2022-12-31T00:09:51;30.63;;;5.45;;
46941;SDS011;32676;52.630;4.896;2022-12-31T00:12:17;23.33;;;4.00;;
46941;SDS011;32676;52.630;4.896;2022-12-31T00:14:44;20.45;;;3.17;;
46941;SDS011;32676;52.630;4.896;2022-12-31T00:17:10;22.95;;;3.67;;
46941;SDS011;32676;52.630;4.896;2022-12-31T00:19:37;21.15;;;3.60;;
46941;SDS011;32676;52.630;4.896;2022-12-31T00:22:05;28.35;;;4.38;;
46941;SDS011;32676;52.630;4.896;2022-12-31T00:24:31;22.27;;;3.95;;
46941;SDS011;32676;52.630;4.896;2022-12-31T00:26:59;17.98;;;2.65;;
46941;SDS011;32676;52.630;4.896;2022-12-31T00:29:26;26.05;;;3.22;;
46941;SDS011;32676;52.630;4.896;2022-12-31T00:31:52;22.08;;;4.45;;
46941;SDS011;32676;52.630;4.896;2022-12-31T00:34:19;24.80;;;4.75;;
46941;SDS011;32676;52.630;4.896;2022-12-31T00:36:45;18.90;;;4.05;;
46941;SDS011;32676;52.630;4.896;2022-12-31T00:39:13;24.88;;;3.75;;
46941;SDS011;32676;52.630;4.896;2022-12-31T00:41:39;21.55;;;3.38;;
46941;SDS011;32676;52.630;4.896;2022-12-31T00:44:07;26.83;;;4.32;;
46941;SDS011;32676;52.630;4.896;2022-12-31T00:46:35;22.60;;;3.38;;
46941;SDS011;32676;52.630;4.896;2022-12-31T00:49:02;20.58;;;3.47;;
46941;SDS011;32676;52.630;4.896;2022-12-31T00:51:28;17.77;;;3.78;;
46941;SDS011;32676;52.630;4.896;2022-12-31T00:53:55;24.73;;;5.40;;
46941;SDS011;32676;52.630;4.896;2022-12-31T00:56:24;20.88;;;3.03;;
46941;SDS011;32676;52.630;4.896;2022-12-31T00:58:52;20.13;;;3.38;;
46941;SDS011;32676;52.630;4.896;2022-12-31T01:01:20;20.63;;;2.38;;
46941;SDS011;32676;52.630;4.896;2022-12-31T01:03:48;25.13;;;3.45;;
46941;SDS011;32676;52.630;4.896;2022-12-31T01:06:16;24.00;;;3.15;;
46941;SDS011;32676;52.630;4.896;2022-12-31T01:08:43;17.13;;;4.53;;
46941;SDS011;32676;52.630;4.896;2022-12-31T01:11:12;15.63;;;2.95;;
46941;SDS011;32676;52.630;4.896;2022-12-31T01:13:47;18.70;;;2.10;;
46941;SDS011;32676;52.630;4.896;2022-12-31T01:16:16;18.23;;;2.42;;
46941;SDS011;32676;52.630;4.896;2022-12-31T01:18:44;15.73;;;2.65;;
46941;SDS011;32676;52.630;4.896;2022-12-31T01:21:11;15.02;;;3.88;;
46941;SDS011;32676;52.630;4.896;2022-12-31T01:23:38;15.43;;;2.20;;
46941;SDS011;32676;52.630;4.896;2022-12-31T01:26:06;17.70;;;2.00;;
46941;SDS011;32676;52.630;4.896;2022-12-31T01:28:34;17.13;;;2.80;;
46941;SDS011;32676;52.630;4.896;2022-12-31T01:31:03;14.52;;;1.52;;
46941;SDS011;32676;52.630;4.896;2022-12-31T01:33:31;14.68;;;1.63;;
46941;SDS011;32676;52.630;4.896;2022-12-31T01:36:01;17.65;;;2.80;;
46941;SDS011;32676;52.630;4.896;2022-12-31T01:38:29;9.77;;;2.17;;
46941;SDS011;32676;52.630;4.896;2022-12-31T01:40:55;11.85;;;1.55;;
46941;SDS011;32676;52.630;4.896;2022-12-31T01:43:22;14.68;;;1.83;;
46941;SDS011;32676;52.630;4.896;2022-12-31T01:45:49;12.55;;;1.40;;
46941;SDS011;32676;52.630;4.896;2022-12-31T01:48:20;8.00;;;1.95;;
46941;SDS011;32676;52.630;4.896;2022-12-31T01:50:50;13.68;;;1.50;;
46941;SDS011;32676;52.630;4.896;2022-12-31T01:53:18;13.93;;;2.10;;
46941;SDS011;32676;52.630;4.896;2022-12-31T01:55:47;15.90;;;1.90;;
46941;SDS011;32676;52.630;4.896;2022-12-31T01:58:18;19.40;;;1.83;;
46941;SDS011;32676;52.630;4.896;2022-12-31T02:00:46;20.25;;;2.95;;
46941;SDS011;32676;52.630;4.896;2022-12-31T02:03:14;18.67;;;1.38;;
46941;SDS011;32676;52.630;4.896;2022-12-31T02:05:44;19.52;;;2.70;;
46941;SDS011;32676;52.630;4.896;2022-12-31T02:08:14;14.82;;;2.20;;
46941;SDS011;32676;52.630;4.896;2022-12-31T02:10:41;18.85;;;2.47;;
46941;SDS011;32676;52.630;4.896;2022-12-31T02:13:07;16.55;;;1.83;;
46941;SDS011;32676;52.630;4.896;2022-12-31T02:15:37;23.63;;;3.45;;
46941;SDS011;32676;52.630;4.896;2022-12-31T02:18:18;19.33;;;2.58;;
46941;SDS011;32676;52.630;4.896;2022-12-31T02:24:07;12.85;;;2.10;;
46941;SDS011;32676;52.630;4.896;2022-12-31T02:26:58;17.25;;;2.83;;
46941;SDS011;32676;52.630;4.896;2022-12-31T02:32:18;25.73;;;3.13;;
46941;SDS011;32676;52.630;4.896;2022-12-31T02:34:49;16.30;;;3.05;;
46941;SDS011;32676;52.630;4.896;2022-12-31T02:37:19;20.88;;;2.58;;
46941;SDS011;32676;52.630;4.896;2022-12-31T02:39:47;10.00;;;2.42;;
46941;SDS011;32676;52.630;4.896;2022-12-31T02:42:14;24.27;;;3.45;;
46941;SDS011;32676;52.630;4.896;2022-12-31T02:44:41;21.38;;;3.95;;
46941;SDS011;32676;52.630;4.896;2022-12-31T02:47:12;19.95;;;2.78;;
46941;SDS011;32676;52.630;4.896;2022-12-31T02:49:48;28.80;;;2.67;;
46941;SDS011;32676;52.630;4.896;2022-12-31T02:52:26;15.60;;;2.45;;
46941;SDS011;32676;52.630;4.896;2022-12-31T02:55:02;23.77;;;3.72;;
46941;SDS011;32676;52.630;4.896;2022-12-31T02:57:36;16.48;;;3.20;;
46941;SDS011;32676;52.630;4.896;2022-12-31T03:00:07;26.83;;;3.47;;
46941;SDS011;32676;52.630;4.896;2022-12-31T03:02:55;18.00;;;3.45;;
46941;SDS011;32676;52.630;4.896;2022-12-31T03:05:24;30.80;;;4.78;;
46941;SDS011;32676;52.630;4.896;2022-12-31T03:07:54;22.27;;;3.35;;
46941;SDS011;32676;52.630;4.896;2022-12-31T03:10:21;22.88;;;3.30;;
46941;SDS011;32676;52.630;4.896;2022-12-31T03:12:48;20.05;;;2.45;;
46941;SDS011;32676;52.630;4.896;2022-12-31T03:15:15;17.05;;;2.30;;
46941;SDS011;32676;52.630;4.896;2022-12-31T03:17:50;12.95;;;2.22;;
46941;SDS011;32676;52.630;4.896;2022-12-31T03:20:22;17.85;;;2.33;;
46941;SDS011;32676;52.630;4.896;2022-12-31T03:23:09;18.77;;;2.92;;
46941;SDS011;32676;52.630;4.896;2022-12-31T03:25:37;11.70;;;2.15;;
46941;SDS011;32676;52.630;4.896;2022-12-31T03:28:04;10.38;;;2.08;;
46941;SDS011;32676;52.630;4.896;2022-12-31T03:30:33;20.70;;;4.88;;
46941;SDS011;32676;52.630;4.896;2022-12-31T03:33:00;23.20;;;3.65;;
46941;SDS011;32676;52.630;4.896;2022-12-31T03:35:28;26.27;;;5.18;;
46941;SDS011;32676;52.630;4.896;2022-12-31T03:37:57;24.48;;;2.58;;
46941;SDS011;32676;52.630;4.896;2022-12-31T03:40:25;15.30;;;2.97;;
46941;SDS011;32676;52.630;4.896;2022-12-31T03:42:53;9.52;;;1.80;;
46941;SDS011;32676;52.630;4.896;2022-12-31T03:45:20;14.98;;;2.67;;
46941;SDS011;32676;52.630;4.896;2022-12-31T03:47:46;17.65;;;3.30;;
46941;SDS011;32676;52.630;4.896;2022-12-31T03:50:13;12.50;;;1.67;;
46941;SDS011;32676;52.630;4.896;2022-12-31T03:52:43;17.02;;;2.38;;
46941;SDS011;32676;52.630;4.896;2022-12-31T03:55:10;10.63;;;1.80;;
46941;SDS011;32676;52.630;4.896;2022-12-31T03:57:37;15.90;;;3.65;;
46941;SDS011;32676;52.630;4.896;2022-12-31T04:00:05;13.38;;;3.10;;
46941;SDS011;32676;52.630;4.896;2022-12-31T04:02:33;8.50;;;1.95;;
46941;SDS011;32676;52.630;4.896;2022-12-31T04:05:00;26.35;;;4.85;;
46941;SDS011;32676;52.630;4.896;2022-12-31T04:07:26;25.15;;;2.40;;
46941;SDS011;32676;52.630;4.896;2022-12-31T04:09:54;15.82;;;2.70;;
46941;SDS011;32676;52.630;4.896;2022-12-31T04:12:21;10.93;;;2.17;;
46941;SDS011;32676;52.630;4.896;2022-12-31T04:14:47;14.77;;;2.28;;
46941;SDS011;32676;52.630;4.896;2022-12-31T04:17:14;18.98;;;2.53;;
46941;SDS011;32676;52.630;4.896;2022-12-31T04:19:40;15.15;;;2.42;;
46941;SDS011;32676;52.630;4.896;2022-12-31T04:22:07;18.58;;;2.47;;
46941;SDS011;32676;52.630;4.896;2022-12-31T04:24:33;17.38;;;2.08;;
46941;SDS011;32676;52.630;4.896;2022-12-31T04:27:01;21.85;;;2.25;;
46941;SDS011;32676;52.630;4.896;2022-12-31T04:29:28;15.60;;;2.30;;
46941;SDS011;32676;52.630;4.896;2022-12-31T04:31:54;21.70;;;2.25;;
46941;SDS011;32676;52.630;4.896;2022-12-31T04:34:21;14.07;;;2.45;;
46941;SDS011;32676;52.630;4.896;2022-12-31T04:36:47;19.98;;;2.22;;
46941;SDS011;32676;52.630;4.896;2022-12-31T04:39:14;18.77;;;2.03;;
46941;SDS011;32676;52.630;4.896;2022-12-31T04:41:40;12.57;;;2.15;;
46941;SDS011;32676;52.630;4.896;2022-12-31T04:44:08;19.45;;;1.70;;
46941;SDS011;32676;52.630;4.896;2022-12-31T04:46:34;16.15;;;2.10;;
46941;SDS011;32676;52.630;4.896;2022-12-31T04:49:01;12.95;;;1.38;;
46941;SDS011;32676;52.630;4.896;2022-12-31T04:51:28;14.10;;;1.90;;
46941;SDS011;32676;52.630;4.896;2022-12-31T04:53:55;9.93;;;2.08;;
46941;SDS011;32676;52.630;4.896;2022-12-31T04:56:22;11.75;;;1.25;;
46941;SDS011;32676;52.630;4.896;2022-12-31T04:58:49;8.45;;;1.00;;
46941;SDS011;32676;52.630;4.896;2022-12-31T05:01:17;11.25;;;1.38;;
46941;SDS011;32676;52.630;4.896;2022-12-31T05:03:44;18.45;;;2.45;;
46941;SDS011;32676;52.630;4.896;2022-12-31T05:06:11;9.55;;;1.77;;
46941;SDS011;32676;52.630;4.896;2022-12-31T05:08:39;11.35;;;1.10;;
46941;SDS011;32676;52.630;4.896;2022-12-31T05:11:06;24.42;;;2.10;;
46941;SDS011;32676;52.630;4.896;2022-12-31T05:13:33;11.23;;;1.10;;
46941;SDS011;32676;52.630;4.896;2022-12-31T05:15:59;10.93;;;2.05;;
46941;SDS011;32676;52.630;4.896;2022-12-31T05:18:28;9.13;;;0.75;;
46941;SDS011;32676;52.630;4.896;2022-12-31T05:20:55;6.82;;;0.93;;
46941;SDS011;32676;52.630;4.896;2022-12-31T05:23:21;5.07;;;1.00;;
46941;SDS011;32676;52.630;4.896;2022-12-31T05:25:48;5.65;;;1.52;;
46941;SDS011;32676;52.630;4.896;2022-12-31T05:28:15;9.70;;;1.13;;
46941;SDS011;32676;52.630;4.896;2022-12-31T05:30:42;11.15;;;2.28;;
46941;SDS011;32676;52.630;4.896;2022-12-31T05:33:09;9.45;;;2.00;;
46941;SDS011;32676;52.630;4.896;2022-12-31T05:35:37;9.55;;;1.10;;
46941;SDS011;32676;52.630;4.896;2022-12-31T05:38:04;7.88;;;1.30;;
46941;SDS011;32676;52.630;4.896;2022-12-31T05:40:30;6.25;;;0.55;;
46941;SDS011;32676;52.630;4.896;2022-12-31T05:42:56;1.75;;;0.73;;
46941;SDS011;32676;52.630;4.896;2022-12-31T05:45:23;6.32;;;1.10;;
46941;SDS011;32676;52.630;4.896;2022-12-31T05:47:49;3.85;;;0.98;;
46941;SDS011;32676;52.630;4.896;2022-12-31T05:50:16;5.88;;;1.05;;
46941;SDS011;32676;52.630;4.896;2022-12-31T05:52:44;4.38;;;0.65;;
46941;SDS011;32676;52.630;4.896;2022-12-31T05:55:11;8.52;;;2.58;;
46941;SDS011;32676;52.630;4.896;2022-12-31T05:57:38;6.65;;;0.93;;
46941;SDS011;32676;52.630;4.896;2022-12-31T06:00:06;5.00;;;0.60;;
46941;SDS011;32676;52.630;4.896;2022-12-31T06:02:34;1.02;;;0.20;;
46941;SDS011;32676;52.630;4.896;2022-12-31T06:05:00;1.67;;;0.50;;
46941;SDS011;32676;52.630;4.896;2022-12-31T06:07:27;1.65;;;0.65;;
46941;SDS011;32676;52.630;4.896;2022-12-31T06:09:55;3.33;;;0.75;;
46941;SDS011;32676;52.630;4.896;2022-12-31T06:12:21;4.38;;;0.68;;
46941;SDS011;32676;52.630;4.896;2022-12-31T06:14:48;2.20;;;0.45;;
46941;SDS011;32676;52.630;4.896;2022-12-31T06:17:14;0.60;;;0.30;;
46941;SDS011;32676;52.630;4.896;2022-12-31T06:19:41;2.20;;;0.20;;
46941;SDS011;32676;52.630;4.896;2022-12-31T06:22:07;3.05;;;0.30;;
46941;SDS011;32676;52.630;4.896;2022-12-31T06:24:34;1.65;;;0.30;;
46941;SDS011;32676;52.630;4.896;2022-12-31T06:27:02;3.65;;;0.40;;
46941;SDS011;32676;52.630;4.896;2022-12-31T06:29:28;3.30;;;0.30;;
46941;SDS011;32676;52.630;4.896;2022-12-31T06:31:55;1.98;;;0.40;;
46941;SDS011;32676;52.630;4.896;2022-12-31T06:34:21;1.08;;;0.30;;
46941;SDS011;32676;52.630;4.896;2022-12-31T06:36:48;0.75;;;0.25;;
46941;SDS011;32676;52.630;4.896;2022-12-31T06:39:14;1.23;;;0.40;;
46941;SDS011;32676;52.630;4.896;2022-12-31T06:41:41;1.15;;;0.70;;
46941;SDS011;32676;52.630;4.896;2022-12-31T06:44:09;4.75;;;1.77;;
46941;SDS011;32676;52.630;4.896;2022-12-31T06:46:35;2.45;;;1.50;;
46941;SDS011;32676;52.630;4.896;2022-12-31T06:49:01;3.03;;;1.90;;
46941;SDS011;32676;52.630;4.896;2022-12-31T06:51:28;4.40;;;1.67;;
46941;SDS011;32676;52.630;4.896;2022-12-31T06:53:54;3.55;;;1.98;;
46941;SDS011;32676;52.630;4.896;2022-12-31T06:56:22;4.40;;;2.00;;
46941;SDS011;32676;52.630;4.896;2022-12-31T06:58:52;3.60;;;2.30;;
46941;SDS011;32676;52.630;4.896;2022-12-31T07:01:28;2.30;;;1.52;;
46941;SDS011;32676;52.630;4.896;2022-12-31T07:04:11;2.13;;;1.40;;
46941;SDS011;32676;52.630;4.896;2022-12-31T07:06:58;8.88;;;2.20;;
46941;SDS011;32676;52.630;4.896;2022-12-31T07:09:33;2.63;;;1.40;;
46941;SDS011;32676;52.630;4.896;2022-12-31T07:12:05;2.58;;;1.73;;
46941;SDS011;32676;52.630;4.896;2022-12-31T07:14:40;1.95;;;1.45;;
46941;SDS011;32676;52.630;4.896;2022-12-31T07:19:48;2.95;;;1.73;;
46941;SDS011;32676;52.630;4.896;2022-12-31T07:22:21;2.85;;;2.05;;
46941;SDS011;32676;52.630;4.896;2022-12-31T07:24:48;2.72;;;1.52;;
46941;SDS011;32676;52.630;4.896;2022-12-31T07:27:20;5.45;;;2.55;;
46941;SDS011;32676;52.630;4.896;2022-12-31T07:30:16;2.13;;;0.80;;
46941;SDS011;32676;52.630;4.896;2022-12-31T07:32:56;4.22;;;0.90;;
46941;SDS011;32676;52.630;4.896;2022-12-31T07:35:38;4.85;;;1.13;;
46941;SDS011;32676;52.630;4.896;2022-12-31T07:38:14;4.97;;;1.00;;
46941;SDS011;32676;52.630;4.896;2022-12-31T07:40:53;6.07;;;0.95;;
46941;SDS011;32676;52.630;4.896;2022-12-31T07:43:27;11.88;;;1.05;;
46941;SDS011;32676;52.630;4.896;2022-12-31T07:46:02;7.15;;;0.90;;
46941;SDS011;32676;52.630;4.896;2022-12-31T07:48:37;11.20;;;1.38;;
46941;SDS011;32676;52.630;4.896;2022-12-31T07:51:04;7.40;;;1.40;;
46941;SDS011;32676;52.630;4.896;2022-12-31T07:53:31;11.57;;;1.65;;
46941;SDS011;32676;52.630;4.896;2022-12-31T07:55:59;12.75;;;1.60;;
46941;SDS011;32676;52.630;4.896;2022-12-31T07:58:29;8.75;;;1.35;;
46941;SDS011;32676;52.630;4.896;2022-12-31T08:01:27;7.50;;;0.95;;
46941;SDS011;32676;52.630;4.896;2022-12-31T08:04:00;9.75;;;0.90;;
46941;SDS011;32676;52.630;4.896;2022-12-31T08:06:33;14.45;;;2.50;;
46941;SDS011;32676;52.630;4.896;2022-12-31T08:09:10;13.77;;;3.35;;
46941;SDS011;32676;52.630;4.896;2022-12-31T08:11:53;8.85;;;1.73;;
46941;SDS011;32676;52.630;4.896;2022-12-31T08:14:22;11.68;;;1.35;;
46941;SDS011;32676;52.630;4.896;2022-12-31T08:16:49;18.50;;;2.45;;
46941;SDS011;32676;52.630;4.896;2022-12-31T08:19:20;8.65;;;1.80;;
46941;SDS011;32676;52.630;4.896;2022-12-31T08:21:51;14.45;;;1.65;;
46941;SDS011;32676;52.630;4.896;2022-12-31T08:24:29;7.25;;;1.20;;
46941;SDS011;32676;52.630;4.896;2022-12-31T08:27:07;5.70;;;0.60;;
46941;SDS011;32676;52.630;4.896;2022-12-31T08:29:42;4.30;;;0.63;;
46941;SDS011;32676;52.630;4.896;2022-12-31T08:32:16;7.63;;;1.55;;
46941;SDS011;32676;52.630;4.896;2022-12-31T08:34:50;4.20;;;0.52;;
46941;SDS011;32676;52.630;4.896;2022-12-31T08:37:25;7.53;;;0.68;;
46941;SDS011;32676;52.630;4.896;2022-12-31T08:40:05;5.50;;;1.05;;
46941;SDS011;32676;52.630;4.896;2022-12-31T08:42:42;8.77;;;0.82;;
46941;SDS011;32676;52.630;4.896;2022-12-31T08:45:16;8.38;;;1.20;;
46941;SDS011;32676;52.630;4.896;2022-12-31T08:47:52;3.88;;;0.90;;
46941;SDS011;32676;52.630;4.896;2022-12-31T08:50:27;11.75;;;1.23;;
46941;SDS011;32676;52.630;4.896;2022-12-31T08:52:54;17.45;;;2.20;;
46941;SDS011;32676;52.630;4.896;2022-12-31T08:55:21;13.63;;;1.80;;
46941;SDS011;32676;52.630;4.896;2022-12-31T08:57:50;12.80;;;2.83;;
46941;SDS011;32676;52.630;4.896;2022-12-31T09:00:28;18.00;;;2.30;;
46941;SDS011;32676;52.630;4.896;2022-12-31T09:02:59;19.05;;;3.72;;
46941;SDS011;32676;52.630;4.896;2022-12-31T09:05:49;14.88;;;2.03;;
46941;SDS011;32676;52.630;4.896;2022-12-31T09:08:24;12.10;;;2.55;;
46941;SDS011;32676;52.630;4.896;2022-12-31T09:11:01;16.90;;;2.88;;
46941;SDS011;32676;52.630;4.896;2022-12-31T09:13:36;18.30;;;3.10;;
46941;SDS011;32676;52.630;4.896;2022-12-31T09:16:16;18.08;;;3.55;;
46941;SDS011;32676;52.630;4.896;2022-12-31T09:18:48;21.63;;;3.60;;
46941;SDS011;32676;52.630;4.896;2022-12-31T09:21:16;18.35;;;3.50;;
46941;SDS011;32676;52.630;4.896;2022-12-31T09:23:43;15.18;;;3.60;;
46941;SDS011;32676;52.630;4.896;2022-12-31T09:29:00;25.20;;;3.75;;
46941;SDS011;32676;52.630;4.896;2022-12-31T09:31:35;24.83;;;2.78;;
46941;SDS011;32676;52.630;4.896;2022-12-31T09:34:11;23.75;;;3.47;;
46941;SDS011;32676;52.630;4.896;2022-12-31T09:36:45;20.52;;;2.53;;
46941;SDS011;32676;52.630;4.896;2022-12-31T09:39:19;16.83;;;2.42;;
46941;SDS011;32676;52.630;4.896;2022-12-31T09:41:59;21.85;;;3.22;;
46941;SDS011;32676;52.630;4.896;2022-12-31T09:47:53;18.02;;;3.15;;
46941;SDS011;32676;52.630;4.896;2022-12-31T09:53:27;24.55;;;4.35;;
46941;SDS011;32676;52.630;4.896;2022-12-31T09:56:13;42.25;;;3.63;;
46941;SDS011;32676;52.630;4.896;2022-12-31T09:58:48;24.38;;;3.60;;
46941;SDS011;32676;52.630;4.896;2022-12-31T10:01:21;25.10;;;3.55;;
46941;SDS011;32676;52.630;4.896;2022-12-31T10:07:04;23.67;;;5.40;;
46941;SDS011;32676;52.630;4.896;2022-12-31T10:09:44;17.85;;;4.88;;
46941;SDS011;32676;52.630;4.896;2022-12-31T10:12:22;26.88;;;3.85;;
46941;SDS011;32676;52.630;4.896;2022-12-31T10:15:07;18.08;;;3.90;;
46941;SDS011;32676;52.630;4.896;2022-12-31T10:17:51;24.33;;;4.95;;
46941;SDS011;32676;52.630;4.896;2022-12-31T10:20:29;23.55;;;3.65;;
46941;SDS011;32676;52.630;4.896;2022-12-31T10:23:05;27.90;;;3.92;;
46941;SDS011;32676;52.630;4.896;2022-12-31T10:25:52;19.38;;;2.65;;
46941;SDS011;32676;52.630;4.896;2022-12-31T10:28:36;13.43;;;2.70;;
46941;SDS011;32676;52.630;4.896;2022-12-31T10:31:12;25.58;;;3.17;;
46941;SDS011;32676;52.630;4.896;2022-12-31T10:33:43;26.35;;;3.05;;
46941;SDS011;32676;52.630;4.896;2022-12-31T10:36:18;15.38;;;3.67;;
46941;SDS011;32676;52.630;4.896;2022-12-31T10:38:51;18.60;;;3.20;;
46941;SDS011;32676;52.630;4.896;2022-12-31T10:53:40;15.75;;;2.70;;
46941;SDS011;32676;52.630;4.896;2022-12-31T10:56:44;17.10;;;2.33;;
46941;SDS011;32676;52.630;4.896;2022-12-31T11:02:44;21.27;;;2.30;;
46941;SDS011;32676;52.630;4.896;2022-12-31T11:05:56;22.95;;;2.95;;
46941;SDS011;32676;52.630;4.896;2022-12-31T11:11:56;22.65;;;3.10;;
46941;SDS011;32676;52.630;4.896;2022-12-31T11:14:42;22.98;;;4.03;;
46941;SDS011;32676;52.630;4.896;2022-12-31T11:17:25;21.70;;;4.22;;
46941;SDS011;32676;52.630;4.896;2022-12-31T11:20:08;25.83;;;3.78;;
46941;SDS011;32676;52.630;4.896;2022-12-31T11:22:47;26.05;;;4.03;;
46941;SDS011;32676;52.630;4.896;2022-12-31T11:25:25;24.67;;;3.25;;
46941;SDS011;32676;52.630;4.896;2022-12-31T11:28:03;21.65;;;4.05;;
46941;SDS011;32676;52.630;4.896;2022-12-31T11:30:50;21.60;;;3.08;;
46941;SDS011;32676;52.630;4.896;2022-12-31T11:33:28;16.67;;;2.83;;
46941;SDS011;32676;52.630;4.896;2022-12-31T11:36:11;18.73;;;3.47;;
46941;SDS011;32676;52.630;4.896;2022-12-31T11:38:49;30.15;;;4.25;;
46941;SDS011;32676;52.630;4.896;2022-12-31T11:41:18;15.15;;;2.55;;
46941;SDS011;32676;52.630;4.896;2022-12-31T11:43:58;31.17;;;5.18;;
46941;SDS011;32676;52.630;4.896;2022-12-31T11:46:35;15.00;;;2.42;;
46941;SDS011;32676;52.630;4.896;2022-12-31T11:49:17;17.00;;;3.83;;
46941;SDS011;32676;52.630;4.896;2022-12-31T11:52:06;25.02;;;4.65;;
46941;SDS011;32676;52.630;4.896;2022-12-31T11:54:51;19.65;;;3.65;;
46941;SDS011;32676;52.630;4.896;2022-12-31T11:57:24;22.13;;;4.30;;
46941;SDS011;32676;52.630;4.896;2022-12-31T11:59:56;22.25;;;2.72;;
46941;SDS011;32676;52.630;4.896;2022-12-31T12:02:25;25.10;;;4.18;;
46941;SDS011;32676;52.630;4.896;2022-12-31T12:04:53;19.70;;;2.58;;
46941;SDS011;32676;52.630;4.896;2022-12-31T12:07:24;22.05;;;3.15;;
46941;SDS011;32676;52.630;4.896;2022-12-31T12:09:52;18.17;;;2.95;;
46941;SDS011;32676;52.630;4.896;2022-12-31T12:12:20;14.98;;;3.58;;
46941;SDS011;32676;52.630;4.896;2022-12-31T12:14:49;23.38;;;3.10;;
46941;SDS011;32676;52.630;4.896;2022-12-31T12:17:23;20.02;;;2.75;;
46941;SDS011;32676;52.630;4.896;2022-12-31T12:19:58;15.77;;;4.38;;
46941;SDS011;32676;52.630;4.896;2022-12-31T12:22:26;21.05;;;3.40;;
46941;SDS011;32676;52.630;4.896;2022-12-31T12:24:55;13.40;;;3.13;;
46941;SDS011;32676;52.630;4.896;2022-12-31T12:27:26;23.15;;;3.58;;
46941;SDS011;32676;52.630;4.896;2022-12-31T12:29:53;26.70;;;3.25;;
46941;SDS011;32676;52.630;4.896;2022-12-31T12:32:22;20.02;;;2.60;;
46941;SDS011;32676;52.630;4.896;2022-12-31T12:34:50;16.98;;;1.77;;
46941;SDS011;32676;52.630;4.896;2022-12-31T12:37:24;19.08;;;2.08;;
46941;SDS011;32676;52.630;4.896;2022-12-31T12:39:57;18.88;;;2.33;;
46941;SDS011;32676;52.630;4.896;2022-12-31T12:42:26;18.30;;;2.55;;
46941;SDS011;32676;52.630;4.896;2022-12-31T12:44:59;12.65;;;2.08;;
46941;SDS011;32676;52.630;4.896;2022-12-31T12:47:28;12.50;;;2.08;;
46941;SDS011;32676;52.630;4.896;2022-12-31T12:49:56;8.88;;;2.10;;
46941;SDS011;32676;52.630;4.896;2022-12-31T12:52:27;10.40;;;1.75;;
46941;SDS011;32676;52.630;4.896;2022-12-31T12:55:09;13.23;;;2.17;;
46941;SDS011;32676;52.630;4.896;2022-12-31T12:57:45;6.13;;;1.33;;
46941;SDS011;32676;52.630;4.896;2022-12-31T13:00:19;6.50;;;1.08;;
46941;SDS011;32676;52.630;4.896;2022-12-31T13:02:55;4.38;;;0.90;;
46941;SDS011;32676;52.630;4.896;2022-12-31T13:05:59;10.98;;;1.60;;
46941;SDS011;32676;52.630;4.896;2022-12-31T13:08:46;3.97;;;1.13;;
46941;SDS011;32676;52.630;4.896;2022-12-31T13:11:24;7.40;;;0.75;;
46941;SDS011;32676;52.630;4.896;2022-12-31T13:14:02;6.78;;;1.48;;
46941;SDS011;32676;52.630;4.896;2022-12-31T13:16:49;8.40;;;1.27;;
46941;SDS011;32676;52.630;4.896;2022-12-31T13:19:26;7.72;;;0.75;;
46941;SDS011;32676;52.630;4.896;2022-12-31T13:22:02;4.70;;;1.42;;
46941;SDS011;32676;52.630;4.896;2022-12-31T13:24:42;4.65;;;0.98;;
46941;SDS011;32676;52.630;4.896;2022-12-31T13:27:16;8.10;;;1.35;;
46941;SDS011;32676;52.630;4.896;2022-12-31T13:29:47;4.63;;;0.70;;
46941;SDS011;32676;52.630;4.896;2022-12-31T13:32:16;1.70;;;0.38;;
46941;SDS011;32676;52.630;4.896;2022-12-31T13:34:48;3.85;;;0.60;;
46941;SDS011;32676;52.630;4.896;2022-12-31T13:37:22;1.52;;;0.88;;
46941;SDS011;32676;52.630;4.896;2022-12-31T13:39:54;2.97;;;0.60;;
46941;SDS011;32676;52.630;4.896;2022-12-31T13:42:26;5.80;;;1.65;;
46941;SDS011;32676;52.630;4.896;2022-12-31T13:44:58;9.45;;;1.30;;
46941;SDS011;32676;52.630;4.896;2022-12-31T13:47:28;10.48;;;1.73;;
46941;SDS011;32676;52.630;4.896;2022-12-31T13:50:02;15.98;;;2.35;;
46941;SDS011;32676;52.630;4.896;2022-12-31T13:52:34;11.52;;;2.38;;
46941;SDS011;32676;52.630;4.896;2022-12-31T13:55:08;11.25;;;2.00;;
46941;SDS011;32676;52.630;4.896;2022-12-31T13:57:39;13.57;;;2.22;;
46941;SDS011;32676;52.630;4.896;2022-12-31T14:00:16;7.63;;;2.00;;
46941;SDS011;32676;52.630;4.896;2022-12-31T14:02:49;26.08;;;3.25;;
46941;SDS011;32676;52.630;4.896;2022-12-31T14:05:25;17.63;;;2.85;;
46941;SDS011;32676;52.630;4.896;2022-12-31T14:07:58;15.55;;;2.92;;
46941;SDS011;32676;52.630;4.896;2022-12-31T14:10:29;11.20;;;2.22;;
46941;SDS011;32676;52.630;4.896;2022-12-31T14:13:06;14.32;;;3.22;;
46941;SDS011;32676;52.630;4.896;2022-12-31T14:15:48;11.32;;;1.85;;
46941;SDS011;32676;52.630;4.896;2022-12-31T14:18:24;16.63;;;2.85;;
46941;SDS011;32676;52.630;4.896;2022-12-31T14:23:33;10.60;;;1.80;;
46941;SDS011;32676;52.630;4.896;2022-12-31T14:26:08;18.05;;;3.22;;
46941;SDS011;32676;52.630;4.896;2022-12-31T14:28:43;16.42;;;2.03;;
46941;SDS011;32676;52.630;4.896;2022-12-31T14:31:14;13.95;;;3.03;;
46941;SDS011;32676;52.630;4.896;2022-12-31T14:33:52;22.08;;;3.38;;
46941;SDS011;32676;52.630;4.896;2022-12-31T14:36:30;14.77;;;2.22;;
46941;SDS011;32676;52.630;4.896;2022-12-31T14:39:11;26.33;;;4.68;;
46941;SDS011;32676;52.630;4.896;2022-12-31T14:41:53;22.23;;;3.10;;
46941;SDS011;32676;52.630;4.896;2022-12-31T14:44:31;28.67;;;3.72;;
46941;SDS011;32676;52.630;4.896;2022-12-31T14:47:11;21.88;;;3.45;;
46941;SDS011;32676;52.630;4.896;2022-12-31T14:49:48;22.75;;;3.55;;
46941;SDS011;32676;52.630;4.896;2022-12-31T14:52:26;22.10;;;3.53;;
46941;SDS011;32676;52.630;4.896;2022-12-31T14:54:58;17.58;;;3.28;;
46941;SDS011;32676;52.630;4.896;2022-12-31T14:57:32;26.00;;;2.72;;
46941;SDS011;32676;52.630;4.896;2022-12-31T15:00:01;16.20;;;3.25;;
46941;SDS011;32676;52.630;4.896;2022-12-31T15:02:47;17.77;;;4.05;;
46941;SDS011;32676;52.630;4.896;2022-12-31T15:05:17;19.80;;;4.35;;
46941;SDS011;32676;52.630;4.896;2022-12-31T15:07:49;26.30;;;4.07;;
46941;SDS011;32676;52.630;4.896;2022-12-31T15:10:28;30.33;;;5.03;;
46941;SDS011;32676;52.630;4.896;2022-12-31T15:13:06;31.27;;;4.78;;
46941;SDS011;32676;52.630;4.896;2022-12-31T15:15:53;22.75;;;3.35;;
46941;SDS011;32676;52.630;4.896;2022-12-31T15:18:37;20.17;;;3.85;;
46941;SDS011;32676;52.630;4.896;2022-12-31T15:21:26;17.20;;;2.63;;
46941;SDS011;32676;52.630;4.896;2022-12-31T15:24:14;29.98;;;4.68;;
46941;SDS011;32676;52.630;4.896;2022-12-31T15:26:47;21.67;;;3.28;;
46941;SDS011;32676;52.630;4.896;2022-12-31T15:29:22;19.73;;;3.40;;
46941;SDS011;32676;52.630;4.896;2022-12-31T15:31:52;19.92;;;5.50;;
46941;SDS011;32676;52.630;4.896;2022-12-31T15:34:23;23.85;;;3.22;;
46941;SDS011;32676;52.630;4.896;2022-12-31T15:36:54;26.35;;;4.25;;
46941;SDS011;32676;52.630;4.896;2022-12-31T15:39:36;23.15;;;2.90;;
46941;SDS011;32676;52.630;4.896;2022-12-31T15:44:54;23.40;;;7.65;;
46941;SDS011;32676;52.630;4.896;2022-12-31T15:47:26;20.85;;;2.63;;
46941;SDS011;32676;52.630;4.896;2022-12-31T15:49:54;27.08;;;3.00;;
46941;SDS011;32676;52.630;4.896;2022-12-31T15:52:25;19.20;;;3.97;;